Time;durP1;ratioP1;P1;durP2;ratioP2;P2;SDS_P1;SDS_P2;PMS_P1;PMS_P2;Temp;Humidity;BMP_temperature;BMP_pressure;BME280_temperature;BME280_humidity;BME280_pressure;Samples;Min_cycle;Max_cycle;Signal;HPM_P1;HPM_P2
2022/10/09 00:01:04;;;;;;;10.00;3.73;;;9.60;99.90;;;;;;5030512;28;20033;-70
2022/10/09 00:03:30;;;;;;;12.13;3.60;;;9.60;99.90;;;;;;5031988;28;20080;-69
2022/10/09 00:05:57;;;;;;;9.80;3.37;;;9.60;99.90;;;;;;5031834;28;20033;-70
2022/10/09 00:08:23;;;;;;;9.30;3.73;;;9.60;99.90;;;;;;5031666;28;20541;-70
2022/10/09 00:10:49;;;;;;;8.97;3.00;;;9.50;99.90;;;;;;5030282;28;20025;-69
2022/10/09 00:13:15;;;;;;;8.67;3.10;;;9.50;99.90;;;;;;5031763;28;20048;-70
2022/10/09 00:15:43;;;;;;;8.50;2.90;;;9.60;99.90;;;;;;5031704;28;20474;-70
2022/10/09 00:18:11;;;;;;;9.83;3.70;;;9.50;99.90;;;;;;5031712;28;20288;-69
2022/10/09 00:20:39;;;;;;;7.83;2.80;;;9.40;99.90;;;;;;5031367;28;20376;-69
2022/10/09 00:23:05;;;;;;;8.57;3.00;;;9.40;99.90;;;;;;5032032;28;20037;-70
2022/10/09 00:25:32;;;;;;;8.37;3.10;;;9.50;99.90;;;;;;5031615;28;20493;-70
2022/10/09 00:27:59;;;;;;;10.27;3.83;;;9.40;99.90;;;;;;5031348;28;20037;-70
2022/10/09 00:30:25;;;;;;;8.43;3.70;;;9.50;99.90;;;;;;5031250;28;20029;-69
2022/10/09 00:32:51;;;;;;;11.03;3.60;;;9.50;99.90;;;;;;5031371;28;20029;-70
2022/10/09 00:35:17;;;;;;;9.70;3.20;;;9.50;99.90;;;;;;5030045;28;20056;-70
2022/10/09 00:37:43;;;;;;;9.10;3.13;;;9.50;99.90;;;;;;5031420;28;20438;-69
2022/10/09 00:40:09;;;;;;;7.13;3.37;;;9.40;99.90;;;;;;5031056;28;20037;-70
2022/10/09 00:42:35;;;;;;;6.97;3.30;;;9.40;99.90;;;;;;5031280;28;20068;-70
2022/10/09 00:45:01;;;;;;;10.03;3.07;;;9.40;99.90;;;;;;5031332;28;20117;-70
2022/10/09 00:47:32;;;;;;;6.97;3.00;;;9.40;99.90;;;;;;5031309;28;20033;-71
2022/10/09 00:50:19;;;;;;;6.40;2.83;;;9.40;99.90;;;;;;5030955;28;20072;-70
2022/10/09 00:52:47;;;;;;;8.97;3.50;;;9.30;99.90;;;;;;5031067;28;20030;-70
2022/10/09 00:55:14;;;;;;;9.17;3.60;;;9.40;99.90;;;;;;5029761;28;20038;-70
2022/10/09 00:57:41;;;;;;;5.60;2.80;;;9.40;99.90;;;;;;5030976;28;20393;-70
2022/10/09 01:00:10;;;;;;;11.63;3.00;;;9.40;99.90;;;;;;5031032;28;20417;-70
2022/10/09 01:02:37;;;;;;;8.60;3.10;;;9.30;99.90;;;;;;5031424;28;20374;-70
2022/10/09 01:05:04;;;;;;;7.90;3.00;;;9.30;99.90;;;;;;5029835;28;20029;-70
2022/10/09 01:07:52;;;;;;;10.13;3.80;;;9.30;99.90;;;;;;5030770;28;20048;-70
2022/10/09 01:10:23;;;;;;;10.27;3.50;;;9.30;99.90;;;;;;5030818;28;20056;-70
2022/10/09 01:13:00;;;;;;;10.87;3.00;;;9.20;99.90;;;;;;5031396;28;20040;-70
2022/10/09 01:15:38;;;;;;;8.03;3.00;;;9.20;99.90;;;;;;5036270;28;20032;-69
2022/10/09 01:18:12;;;;;;;8.77;3.00;;;9.20;99.90;;;;;;5037524;28;20389;-69
2022/10/09 01:21:04;;;;;;;7.60;3.00;;;9.20;99.90;;;;;;5037691;28;20026;-70
2022/10/09 01:23:51;;;;;;;8.37;3.07;;;9.20;99.90;;;;;;5037402;28;20497;-71
2022/10/09 01:26:42;;;;;;;11.10;3.53;;;9.10;99.90;;;;;;5037359;28;20034;-69
2022/10/09 01:29:10;;;;;;;7.77;3.07;;;9.10;99.90;;;;;;5036012;28;20025;-69
2022/10/09 01:31:40;;;;;;;6.63;3.23;;;9.10;99.90;;;;;;5035894;28;20029;-69
2022/10/09 01:34:07;;;;;;;9.60;2.67;;;9.10;99.90;;;;;;5037547;28;20276;-70
2022/10/09 01:36:35;;;;;;;6.20;2.87;;;9.00;99.90;;;;;;5035877;28;20057;-70
2022/10/09 01:39:03;;;;;;;7.43;3.13;;;9.00;99.90;;;;;;5037123;28;20037;-70
2022/10/09 01:41:30;;;;;;;10.40;3.60;;;9.00;99.90;;;;;;5037112;28;20041;-70
2022/10/09 01:43:55;;;;;;;6.60;2.67;;;9.00;99.90;;;;;;5037293;28;20068;-71
2022/10/09 01:46:26;;;;;;;8.43;3.23;;;9.10;99.90;;;;;;5036963;28;20065;-69
2022/10/09 01:49:15;;;;;;;9.07;3.00;;;9.00;99.90;;;;;;5037030;28;20029;-70
2022/10/09 01:51:54;;;;;;;6.88;2.92;;;9.00;99.90;;;;;;5030573;28;20038;-68
2022/10/09 01:54:37;;;;;;;6.13;2.80;;;8.90;99.90;;;;;;5036916;28;20026;-69
2022/10/09 01:57:07;;;;;;;7.83;2.97;;;9.00;99.90;;;;;;5035992;28;20060;-69
2022/10/09 01:59:38;;;;;;;7.93;2.58;;;9.00;99.90;;;;;;5034733;28;20032;-69
2022/10/09 02:02:05;;;;;;;7.13;2.97;;;9.00;99.90;;;;;;5036122;28;20103;-70
2022/10/09 02:04:32;;;;;;;7.87;2.93;;;9.00;99.90;;;;;;5036251;28;20060;-69
2022/10/09 02:06:59;;;;;;;5.00;2.93;;;8.90;99.90;;;;;;5036449;28;20067;-69
2022/10/09 02:09:24;;;;;;;7.73;2.60;;;8.90;99.90;;;;;;5035951;28;20030;-69
2022/10/09 02:11:56;;;;;;;8.67;3.47;;;8.90;99.90;;;;;;5035917;28;20386;-70
2022/10/09 02:14:22;;;;;;;6.27;3.00;;;8.80;99.90;;;;;;5036000;28;20037;-69
2022/10/09 02:17:04;;;;;;;7.87;2.83;;;8.80;99.90;;;;;;5035983;28;20112;-69
2022/10/09 02:19:40;;;;;;;8.07;2.70;;;8.80;99.90;;;;;;5035801;28;20065;-69
2022/10/09 02:22:26;;;;;;;8.53;2.87;;;8.80;99.90;;;;;;5036124;28;20029;-70
2022/10/09 02:24:53;;;;;;;8.60;2.97;;;8.80;99.90;;;;;;5033582;28;20117;-69
2022/10/09 02:27:20;;;;;;;8.30;2.70;;;8.80;99.90;;;;;;5032350;28;20030;-69
2022/10/09 02:29:47;;;;;;;11.23;2.90;;;8.70;99.90;;;;;;5032325;28;20053;-69
2022/10/09 02:32:14;;;;;;;7.97;3.13;;;8.70;99.90;;;;;;5032455;28;20033;-69
2022/10/09 02:34:40;;;;;;;7.57;3.30;;;8.70;99.90;;;;;;5032391;28;20109;-69
2022/10/09 02:37:07;;;;;;;7.40;3.10;;;8.70;99.90;;;;;;5032472;28;20036;-69
2022/10/09 02:39:33;;;;;;;8.43;3.30;;;8.60;99.90;;;;;;5032259;28;20114;-70
2022/10/09 02:41:58;;;;;;;10.27;3.30;;;8.60;99.90;;;;;;5031372;28;20100;-69
2022/10/09 02:44:24;;;;;;;6.47;3.10;;;8.60;99.90;;;;;;5032259;28;20033;-70
2022/10/09 02:46:50;;;;;;;12.47;3.10;;;8.60;99.90;;;;;;5032204;28;20033;-70
2022/10/09 02:49:16;;;;;;;8.73;3.03;;;8.60;99.90;;;;;;5032308;28;20032;-70
2022/10/09 02:51:42;;;;;;;6.97;2.90;;;8.60;99.90;;;;;;5030693;28;20026;-69
2022/10/09 02:54:09;;;;;;;6.37;2.77;;;8.60;99.90;;;;;;4987814;28;1273381;-70
2022/10/09 02:56:35;;;;;;;8.87;3.37;;;8.50;99.90;;;;;;5033114;28;20092;-70
2022/10/09 02:59:01;;;;;;;8.47;3.23;;;8.60;99.90;;;;;;5032886;28;20057;-70
2022/10/09 03:01:27;;;;;;;9.13;2.90;;;8.50;99.90;;;;;;5033006;28;20079;-70
2022/10/09 03:03:53;;;;;;;8.60;2.90;;;8.50;99.90;;;;;;5033215;28;20040;-70
2022/10/09 03:06:23;;;;;;;9.37;2.93;;;8.50;99.90;;;;;;5032947;28;20029;-70
2022/10/09 03:08:50;;;;;;;9.07;3.13;;;8.50;99.90;;;;;;5032769;28;20025;-70
2022/10/09 03:11:18;;;;;;;10.57;3.10;;;8.50;99.90;;;;;;5032816;28;20040;-70
2022/10/09 03:13:44;;;;;;;7.80;3.13;;;8.50;99.90;;;;;;5033137;28;20030;-70
2022/10/09 03:16:13;;;;;;;6.53;2.90;;;8.50;99.90;;;;;;5032861;28;20029;-69
2022/10/09 03:18:39;;;;;;;8.63;3.30;;;8.50;99.90;;;;;;5032741;28;20367;-70
2022/10/09 03:21:06;;;;;;;13.60;3.23;;;8.50;99.90;;;;;;5032681;28;20422;-69
2022/10/09 03:23:33;;;;;;;5.10;2.70;;;8.50;99.90;;;;;;5032710;28;20025;-70
2022/10/09 03:26:04;;;;;;;9.03;2.97;;;8.40;99.90;;;;;;5031316;28;20168;-70
2022/10/09 03:28:30;;;;;;;8.17;3.03;;;8.40;99.90;;;;;;5032481;28;20036;-70
2022/10/09 03:30:56;;;;;;;6.67;3.10;;;8.40;99.90;;;;;;5032725;28;20033;-69
2022/10/09 03:33:22;;;;;;;8.20;3.40;;;8.40;99.90;;;;;;5032546;28;20032;-70
2022/10/09 03:35:49;;;;;;;6.60;3.20;;;8.40;99.90;;;;;;5032425;28;20029;-69
2022/10/09 03:38:15;;;;;;;11.80;3.40;;;8.40;99.90;;;;;;5032305;28;20030;-69
2022/10/09 03:40:41;;;;;;;9.23;3.30;;;8.40;99.90;;;;;;5032112;28;20040;-70
2022/10/09 03:43:08;;;;;;;6.17;2.97;;;8.30;99.90;;;;;;5032143;28;20033;-70
2022/10/09 03:45:34;;;;;;;12.57;3.50;;;8.30;99.90;;;;;;5032364;28;20080;-70
2022/10/09 03:48:00;;;;;;;9.37;3.40;;;8.30;99.90;;;;;;5032169;28;20083;-70
2022/10/09 03:50:26;;;;;;;9.20;3.20;;;8.30;99.90;;;;;;5032244;28;20025;-70
2022/10/09 03:52:52;;;;;;;8.73;3.27;;;8.30;99.90;;;;;;5031111;28;20049;-70
2022/10/09 03:55:18;;;;;;;9.03;2.83;;;8.30;99.90;;;;;;5032015;28;20030;-70
2022/10/09 03:57:44;;;;;;;9.03;3.00;;;8.30;99.90;;;;;;5031967;28;20025;-70
2022/10/09 04:00:10;;;;;;;7.00;3.37;;;8.30;99.90;;;;;;5030713;28;20033;-71
2022/10/09 04:02:36;;;;;;;10.43;3.30;;;8.30;99.90;;;;;;5031946;28;20120;-70
2022/10/09 04:05:02;;;;;;;8.43;3.40;;;8.30;99.90;;;;;;5031936;28;20112;-70
2022/10/09 04:07:28;;;;;;;11.73;3.60;;;8.30;99.90;;;;;;5031761;28;20021;-70
2022/10/09 04:09:54;;;;;;;8.77;3.30;;;8.30;99.90;;;;;;5031742;28;20378;-70
2022/10/09 04:12:20;;;;;;;7.20;3.23;;;8.30;99.90;;;;;;5031825;28;20605;-70
2022/10/09 04:14:46;;;;;;;7.63;3.70;;;8.30;99.90;;;;;;5031873;28;20033;-70
2022/10/09 04:17:12;;;;;;;10.27;3.83;;;8.30;99.90;;;;;;5031610;28;20037;-69
2022/10/09 04:19:38;;;;;;;8.77;3.53;;;8.20;99.90;;;;;;5031624;28;20025;-70
2022/10/09 04:22:04;;;;;;;11.07;3.77;;;8.30;99.90;;;;;;5031593;28;20094;-70
2022/10/09 04:24:30;;;;;;;7.37;3.57;;;8.20;99.90;;;;;;5031575;28;20030;-70
2022/10/09 04:26:56;;;;;;;6.83;2.83;;;8.30;99.90;;;;;;5031393;28;20161;-71
2022/10/09 04:29:22;;;;;;;8.20;3.43;;;8.30;99.90;;;;;;5031304;28;20133;-71
2022/10/09 04:31:48;;;;;;;7.20;3.57;;;8.30;99.90;;;;;;5031435;28;20022;-70
2022/10/09 04:34:14;;;;;;;7.80;3.50;;;8.30;99.90;;;;;;5031579;28;20031;-70
2022/10/09 04:36:39;;;;;;;9.53;4.30;;;8.30;99.90;;;;;;5030278;28;20366;-70
2022/10/09 04:39:05;;;;;;;10.00;3.80;;;8.50;99.90;;;;;;5031354;28;20034;-71
2022/10/09 04:41:31;;;;;;;9.40;4.33;;;8.40;99.90;;;;;;5031164;28;20065;-70
2022/10/09 04:43:57;;;;;;;10.93;4.13;;;8.40;99.90;;;;;;5031346;28;20545;-70
2022/10/09 04:46:23;;;;;;;11.07;3.73;;;8.40;99.90;;;;;;5031290;28;20545;-70
2022/10/09 04:48:49;;;;;;;9.03;4.10;;;8.40;99.90;;;;;;5030382;28;20339;-71
2022/10/09 04:51:16;;;;;;;7.47;3.47;;;8.40;99.90;;;;;;5031187;28;20490;-70
2022/10/09 04:53:43;;;;;;;10.03;3.80;;;8.30;99.90;;;;;;5031127;28;20105;-70
2022/10/09 04:56:17;;;;;;;9.77;3.33;;;8.30;99.90;;;;;;5031044;28;20037;-70
2022/10/09 04:58:44;;;;;;;8.50;3.90;;;8.30;99.90;;;;;;5029667;28;20033;-70
2022/10/09 05:01:16;;;;;;;9.87;3.90;;;8.30;99.90;;;;;;5013280;28;20057;-70
2022/10/09 05:03:43;;;;;;;11.23;4.43;;;8.30;99.90;;;;;;5030956;28;20045;-70
2022/10/09 05:06:10;;;;;;;7.13;3.90;;;8.30;99.90;;;;;;5030931;28;20120;-70
2022/10/09 05:08:37;;;;;;;9.00;3.63;;;8.30;99.90;;;;;;5031217;28;20033;-70
2022/10/09 05:11:05;;;;;;;10.60;3.70;;;8.30;99.90;;;;;;5030827;28;20044;-70
2022/10/09 05:13:33;;;;;;;9.23;4.43;;;8.30;99.90;;;;;;5031004;28;20033;-70
2022/10/09 05:16:20;;;;;;;10.38;3.85;;;8.40;99.90;;;;;;5030841;28;20041;-69
2022/10/09 05:18:52;;;;;;;8.83;3.87;;;8.40;99.90;;;;;;5031009;28;20410;-70
2022/10/09 05:21:19;;;;;;;7.40;3.70;;;8.40;99.90;;;;;;5030875;28;20033;-70
2022/10/09 05:23:46;;;;;;;9.83;4.07;;;8.40;99.90;;;;;;5030852;28;20509;-71
2022/10/09 05:26:18;;;;;;;8.87;3.87;;;8.40;99.90;;;;;;5029421;28;20040;-70
2022/10/09 05:28:44;;;;;;;9.57;4.20;;;8.30;99.90;;;;;;5030757;28;20025;-70
2022/10/09 05:31:20;;;;;;;9.87;3.80;;;8.30;99.90;;;;;;5030732;28;20028;-70
2022/10/09 05:33:47;;;;;;;8.90;4.03;;;8.30;99.90;;;;;;5030799;28;20030;-70
2022/10/09 05:36:13;;;;;;;8.80;4.13;;;8.30;99.90;;;;;;5030808;28;20025;-70
2022/10/09 05:38:39;;;;;;;12.20;4.40;;;8.20;99.90;;;;;;5030781;28;20029;-70
2022/10/09 05:41:07;;;;;;;8.13;3.77;;;8.30;99.90;;;;;;5030676;28;20030;-70
2022/10/09 05:43:39;;;;;;;15.03;4.13;;;8.20;99.90;;;;;;5030710;28;20108;-70
2022/10/09 05:46:19;;;;;;;11.57;4.27;;;8.20;99.90;;;;;;5030604;28;20037;-70
2022/10/09 05:48:51;;;;;;;8.93;3.83;;;8.20;99.90;;;;;;5012764;28;20321;-70
2022/10/09 05:51:28;;;;;;;8.90;3.63;;;8.20;99.90;;;;;;5029212;28;20037;-70
2022/10/09 05:53:55;;;;;;;8.97;3.70;;;8.20;99.90;;;;;;5066181;22;20245;-81
2022/10/09 05:56:27;;;;;;;8.93;3.97;;;8.10;99.90;;;;;;5052290;28;20036;-81
2022/10/09 05:58:58;;;;;;;12.47;4.10;;;8.20;99.90;;;;;;5070259;28;20117;-80
2022/10/09 06:01:27;;;;;;;12.47;4.47;;;8.20;99.90;;;;;;5073900;28;20028;-81
2022/10/09 06:03:54;;;;;;;10.40;4.25;;;8.20;99.90;;;;;;5073713;28;20451;-81
2022/10/09 06:06:22;;;;;;;12.73;4.23;;;8.20;99.90;;;;;;5073867;28;20036;-81
2022/10/09 06:08:48;;;;;;;8.23;4.20;;;8.10;99.90;;;;;;5073471;28;20029;-81
2022/10/09 06:11:18;;;;;;;13.73;4.50;;;8.10;99.90;;;;;;5073653;28;20048;-81
2022/10/09 06:13:44;;;;;;;13.30;4.57;;;8.20;99.90;;;;;;5055792;28;20068;-81
2022/10/09 06:16:12;;;;;;;10.63;4.30;;;8.20;99.90;;;;;;5073427;28;20074;-81
2022/10/09 06:18:39;;;;;;;9.90;4.27;;;8.10;99.90;;;;;;5073863;28;20384;-81
2022/10/09 06:21:05;;;;;;;7.67;4.10;;;8.10;99.90;;;;;;5073781;28;20035;-81
2022/10/09 06:23:31;;;;;;;12.03;5.80;;;8.10;99.90;;;;;;5073507;28;20043;-81
2022/10/09 06:26:05;;;;;;;13.93;5.30;;;8.10;99.90;;;;;;5055481;28;20452;-81
2022/10/09 06:28:33;;;;;;;9.00;4.47;;;8.10;99.90;;;;;;5073232;28;20153;-81
2022/10/09 06:31:07;;;;;;;9.83;4.50;;;8.10;99.90;;;;;;5073286;28;20020;-81
2022/10/09 06:33:35;;;;;;;12.53;4.47;;;8.10;99.90;;;;;;5073251;28;20020;-81
2022/10/09 06:36:12;;;;;;;12.20;5.17;;;8.20;99.90;;;;;;5073365;28;20033;-81
2022/10/09 06:38:39;;;;;;;11.13;4.93;;;8.20;99.90;;;;;;5055182;28;20099;-81
2022/10/09 06:41:11;;;;;;;11.87;5.07;;;8.20;99.90;;;;;;5073576;28;20040;-81
2022/10/09 06:43:37;;;;;;;9.80;5.17;;;8.20;99.90;;;;;;5073104;28;20035;-81
2022/10/09 06:46:06;;;;;;;10.27;4.53;;;8.20;99.90;;;;;;5072935;28;20032;-81
2022/10/09 06:48:33;;;;;;;9.60;4.80;;;8.30;99.90;;;;;;5072894;28;20025;-81
2022/10/09 06:51:07;;;;;;;8.03;4.60;;;8.20;99.90;;;;;;5073010;28;20504;-81
2022/10/09 06:53:37;;;;;;;14.10;5.10;;;8.30;99.90;;;;;;5072789;28;20033;-80
2022/10/09 06:56:04;;;;;;;9.80;4.90;;;8.30;99.90;;;;;;5072736;28;20024;-80
2022/10/09 06:58:30;;;;;;;10.73;4.97;;;8.40;99.90;;;;;;5073001;28;20032;-81
2022/10/09 07:01:17;;;;;;;11.93;5.60;;;8.40;99.90;;;;;;5072815;28;20101;-81
2022/10/09 07:03:45;;;;;;;9.13;5.03;;;8.50;99.90;;;;;;5072773;28;20028;-81
2022/10/09 07:06:17;;;;;;;13.90;4.80;;;8.50;99.90;;;;;;5072594;28;20032;-81
2022/10/09 07:08:45;;;;;;;9.83;4.67;;;8.60;99.90;;;;;;5072232;28;20029;-81
2022/10/09 07:11:19;;;;;;;10.60;4.93;;;8.70;99.90;;;;;;5072033;28;20039;-81
2022/10/09 07:13:48;;;;;;;10.30;4.60;;;8.60;99.90;;;;;;5072527;28;20545;-81
2022/10/09 07:16:21;;;;;;;10.80;5.07;;;8.70;99.90;;;;;;5072514;28;20454;-81
2022/10/09 07:18:47;;;;;;;11.83;4.90;;;8.90;99.90;;;;;;5072366;28;20033;-81
2022/10/09 07:21:13;;;;;;;12.90;4.60;;;8.90;99.90;;;;;;5072353;28;20024;-81
2022/10/09 07:23:39;;;;;;;9.33;4.47;;;8.90;99.90;;;;;;5072561;28;20040;-81
2022/10/09 07:26:14;;;;;;;8.90;4.30;;;9.00;99.90;;;;;;5072208;28;20424;-81
2022/10/09 07:28:41;;;;;;;8.97;4.10;;;9.10;99.90;;;;;;5072098;28;20503;-81
2022/10/09 07:31:07;;;;;;;12.77;5.00;;;9.10;99.90;;;;;;5072250;28;20032;-81
2022/10/09 07:33:33;;;;;;;10.90;4.73;;;9.20;99.90;;;;;;5072200;28;20103;-81
2022/10/09 07:36:01;;;;;;;30.00;15.93;;;9.30;99.90;;;;;;5054164;28;20569;-81
2022/10/09 07:38:27;;;;;;;37.63;20.67;;;9.40;99.90;;;;;;5072110;28;20212;-81
2022/10/09 07:40:53;;;;;;;40.03;23.70;;;9.50;99.90;;;;;;5072018;28;20024;-81
2022/10/09 07:43:20;;;;;;;41.27;24.03;;;9.50;99.90;;;;;;5054008;28;20473;-82
2022/10/09 07:45:46;;;;;;;49.73;27.43;;;9.60;99.90;;;;;;5071702;28;20107;-81
2022/10/09 07:48:12;;;;;;;53.20;28.70;;;9.60;99.90;;;;;;5071704;28;20029;-81
2022/10/09 07:50:38;;;;;;;57.03;27.83;;;9.70;99.90;;;;;;5071490;28;20052;-81
2022/10/09 07:53:04;;;;;;;45.43;24.03;;;9.80;99.90;;;;;;5071948;28;20060;-81
2022/10/09 07:55:29;;;;;;;32.87;17.27;;;9.90;99.90;;;;;;5071806;28;20499;-81
2022/10/09 07:57:55;;;;;;;23.27;12.40;;;9.90;99.90;;;;;;5071568;28;20028;-81
2022/10/09 08:00:21;;;;;;;21.97;10.87;;;10.00;99.90;;;;;;5053629;28;20032;-80
2022/10/09 08:02:46;;;;;;;13.23;7.00;;;10.10;99.90;;;;;;5072067;28;20035;-81
2022/10/09 08:05:12;;;;;;;16.20;5.60;;;10.20;99.90;;;;;;5071535;28;20027;-81
2022/10/09 08:07:38;;;;;;;8.97;4.43;;;10.20;99.90;;;;;;5071393;28;20116;-81
2022/10/09 08:10:04;;;;;;;8.67;3.70;;;10.30;99.90;;;;;;5071362;28;20020;-81
2022/10/09 08:12:30;;;;;;;8.07;3.53;;;10.40;99.90;;;;;;5071552;28;20020;-81
2022/10/09 08:14:55;;;;;;;7.67;2.87;;;10.40;99.90;;;;;;5036726;28;20024;-82
2022/10/09 08:17:21;;;;;;;8.90;3.93;;;10.40;99.90;;;;;;5071173;28;20021;-81
2022/10/09 08:19:47;;;;;;;18.80;8.97;;;10.50;99.90;;;;;;5071275;28;20398;-81
2022/10/09 08:22:12;;;;;;;12.97;6.60;;;10.50;99.90;;;;;;5071113;28;20039;-81
2022/10/09 08:24:38;;;;;;;10.87;4.07;;;10.50;99.90;;;;;;5070426;28;20295;-82
2022/10/09 08:27:04;;;;;;;9.10;3.73;;;10.60;99.90;;;;;;5071067;28;20023;-81
2022/10/09 08:29:31;;;;;;;8.80;3.40;;;10.60;99.90;;;;;;5070882;28;20173;-81
2022/10/09 08:31:56;;;;;;;9.00;3.07;;;10.60;99.90;;;;;;5070983;28;20123;-82
2022/10/09 08:34:22;;;;;;;6.07;2.60;;;10.70;99.90;;;;;;5071255;28;20166;-81
2022/10/09 08:36:48;;;;;;;8.50;2.40;;;10.80;99.90;;;;;;5070853;28;20029;-81
2022/10/09 08:39:14;;;;;;;9.73;2.23;;;10.80;99.90;;;;;;5052828;28;20542;-81
2022/10/09 08:41:46;;;;;;;8.00;2.53;;;10.90;99.90;;;;;;5070965;28;20028;-82
2022/10/09 08:44:15;;;;;;;11.83;3.10;;;10.90;99.90;;;;;;5070673;28;20389;-82
2022/10/09 08:47:02;;;;;;;9.05;3.05;;;11.00;99.90;;;;;;5070407;28;20032;-81
2022/10/09 08:49:49;;;;;;;8.27;2.70;;;11.00;99.90;;;;;;5070441;28;20098;-81
2022/10/09 08:52:20;;;;;;;7.63;2.93;;;11.10;99.90;;;;;;5070899;28;20477;-81
2022/10/09 08:54:46;;;;;;;7.13;2.40;;;11.20;99.90;;;;;;5070531;28;20614;-82
2022/10/09 08:57:14;;;;;;;6.73;2.47;;;11.20;99.90;;;;;;5070656;28;20028;-81
2022/10/09 08:59:41;;;;;;;5.90;2.30;;;11.30;99.90;;;;;;5070596;28;20134;-81
2022/10/09 09:02:32;;;;;;;7.60;2.70;;;11.30;99.90;;;;;;5070929;28;20035;-81
2022/10/09 09:05:06;;;;;;;9.13;3.20;;;11.30;99.90;;;;;;5070649;28;20029;-81
2022/10/09 09:07:43;;;;;;;6.77;2.30;;;11.40;99.90;;;;;;5070406;28;20595;-81
2022/10/09 09:10:21;;;;;;;7.27;1.93;;;11.50;99.90;;;;;;5070429;28;20068;-81
2022/10/09 09:12:53;;;;;;;5.50;1.90;;;11.50;99.90;;;;;;5070672;28;20280;-81
2022/10/09 09:15:40;;;;;;;6.27;2.80;;;11.60;99.90;;;;;;5070648;28;20021;-81
2022/10/09 09:18:13;;;;;;;5.33;2.50;;;11.60;99.90;;;;;;5070600;28;20071;-81
2022/10/09 09:20:52;;;;;;;7.57;2.83;;;11.60;99.90;;;;;;5070282;28;20044;-81
2022/10/09 09:23:32;;;;;;;10.50;2.72;;;11.70;99.90;;;;;;5070587;28;20029;-82
2022/10/09 09:25:59;;;;;;;7.60;2.20;;;11.70;99.90;;;;;;5070356;28;20089;-82
2022/10/09 09:28:32;;;;;;;7.30;3.13;;;11.80;99.90;;;;;;5070380;28;20039;-81
2022/10/09 09:31:22;;;;;;;9.43;2.73;;;11.80;99.90;;;;;;5070391;28;20435;-82
2022/10/09 09:33:54;;;;;;;6.23;2.13;;;11.90;99.90;;;;;;5070394;28;20127;-81
2022/10/09 09:36:47;;;;;;;5.53;2.40;;;11.90;99.90;;;;;;5074155;28;20024;-81
2022/10/09 09:39:13;;;;;;;5.63;2.00;;;12.00;99.90;;;;;;5074410;28;20032;-81
2022/10/09 09:41:41;;;;;;;9.47;2.80;;;12.00;99.90;;;;;;5074390;28;20377;-81
2022/10/09 09:44:10;;;;;;;6.17;2.10;;;12.20;99.90;;;;;;5074238;28;20031;-82
2022/10/09 09:46:36;;;;;;;9.48;2.10;;;12.30;99.90;;;;;;5056161;28;20473;-82
2022/10/09 09:49:02;;;;;;;7.83;2.00;;;12.30;99.90;;;;;;5055963;28;20409;-82
2022/10/09 09:51:30;;;;;;;8.37;2.20;;;12.40;99.90;;;;;;5074373;28;20021;-82
2022/10/09 09:54:14;;;;;;;7.75;2.13;;;12.40;99.90;;;;;;5056109;28;20029;-82
2022/10/09 09:56:45;;;;;;;4.00;1.83;;;12.50;99.90;;;;;;5055965;28;20039;-82
2022/10/09 09:59:42;;;;;;;10.55;2.72;;;12.50;99.90;;;;;;5056066;28;20389;-81
2022/10/09 10:02:20;;;;;;;6.17;2.30;;;12.60;99.90;;;;;;5074051;28;20081;-82
2022/10/09 10:04:50;;;;;;;5.32;1.83;;;12.60;99.90;;;;;;5074514;28;20111;-81
2022/10/09 10:07:32;;;;;;;5.72;1.85;;;12.70;99.90;;;;;;5055744;28;20503;-82
2022/10/09 10:10:17;;;;;;;5.72;1.60;;;12.70;99.90;;;;;;5055712;28;20033;-82
2022/10/09 10:12:58;;;;;;;6.80;2.75;;;12.70;99.90;;;;;;5073823;28;20337;-82
2022/10/09 10:15:25;;;;;;;6.82;2.10;;;12.80;99.90;;;;;;5073673;28;20104;-81
2022/10/09 10:18:16;;;;;;;6.18;1.50;;;12.90;99.90;;;;;;5073595;28;20037;-81
2022/10/09 10:20:44;;;;;;;5.40;1.45;;;13.00;99.90;;;;;;5072757;28;20045;-82
2022/10/09 10:23:24;;;;;;;4.77;1.40;;;13.00;99.90;;;;;;5073797;28;20089;-82
2022/10/09 10:25:54;;;;;;;5.38;1.40;;;13.00;99.90;;;;;;5073219;28;20032;-81
2022/10/09 10:28:26;;;;;;;8.55;1.80;;;13.10;99.90;;;;;;5055542;28;20028;-82
2022/10/09 10:30:54;;;;;;;6.43;1.48;;;13.10;99.90;;;;;;5073235;28;20035;-81
2022/10/09 10:33:26;;;;;;;5.13;1.60;;;13.20;99.90;;;;;;5073584;28;20107;-82
2022/10/09 10:35:54;;;;;;;3.65;1.50;;;13.20;99.90;;;;;;5055204;28;20275;-82
2022/10/09 10:38:42;;;;;;;6.28;2.00;;;13.20;99.90;;;;;;5073724;28;20032;-82
2022/10/09 10:41:14;;;;;;;7.05;2.60;;;13.30;99.90;;;;;;5074315;28;20390;-81
2022/10/09 10:43:42;;;;;;;5.32;2.63;;;13.30;99.90;;;;;;5073438;28;20039;-82
2022/10/09 10:46:14;;;;;;;4.13;1.80;;;13.30;99.90;;;;;;5071791;28;20042;-82
2022/10/09 10:48:41;;;;;;;9.27;2.65;;;13.30;99.90;;;;;;5072941;28;20102;-82
2022/10/09 10:51:31;;;;;;;5.82;1.83;;;13.40;99.90;;;;;;5073061;28;20039;-82
2022/10/09 10:54:12;;;;;;;3.45;1.60;;;13.40;99.90;;;;;;5072929;28;20028;-82
2022/10/09 10:57:00;;;;;;;4.10;1.50;;;13.40;99.90;;;;;;5072896;28;20046;-82
2022/10/09 10:59:39;;;;;;;4.43;1.67;;;13.50;99.90;;;;;;5072718;28;20067;-82
2022/10/09 11:02:08;;;;;;;9.45;3.13;;;13.50;99.90;;;;;;5072760;28;20476;-81
2022/10/09 11:04:46;;;;;;;8.95;2.10;;;13.50;99.90;;;;;;5072801;28;20039;-82
2022/10/09 11:07:30;;;;;;;6.75;1.40;;;13.60;99.90;;;;;;5072698;28;20064;-82
2022/10/09 11:09:55;;;;;;;6.18;1.40;;;13.60;99.50;;;;;;5072546;28;20032;-82
2022/10/09 11:12:50;;;;;;;9.23;1.52;;;13.70;99.10;;;;;;5072678;28;20028;-82
2022/10/09 11:15:37;;;;;;;5.93;1.63;;;13.80;98.50;;;;;;5072709;28;20071;-82
2022/10/09 11:18:25;;;;;;;5.65;1.70;;;13.80;98.20;;;;;;5072679;28;20032;-82
2022/10/09 11:20:59;;;;;;;6.53;2.00;;;13.90;98.30;;;;;;5072224;28;20040;-82
2022/10/09 11:23:32;;;;;;;7.07;2.03;;;13.90;98.40;;;;;;5072420;28;20523;-82
2022/10/09 11:26:38;;;;;;;6.43;2.38;;;13.80;98.50;;;;;;5072295;28;20024;-82
2022/10/09 11:29:16;;;;;;;3.95;1.30;;;13.90;98.70;;;;;;5037912;28;20059;-82
2022/10/09 11:31:46;;;;;;;5.90;1.77;;;13.90;98.20;;;;;;5054412;28;20095;-82
2022/10/09 11:34:20;;;;;;;8.65;3.15;;;13.90;98.20;;;;;;5072294;28;20298;-82
2022/10/09 11:36:46;;;;;;;8.02;2.60;;;14.00;97.80;;;;;;5072066;28;20089;-81
2022/10/09 11:39:24;;;;;;;7.13;3.15;;;14.00;98.00;;;;;;5071896;28;20028;-82
2022/10/09 11:41:53;;;;;;;4.85;1.88;;;14.00;97.70;;;;;;5072042;28;20036;-81
2022/10/09 11:44:39;;;;;;;7.38;1.88;;;14.00;97.70;;;;;;5072166;28;20145;-82
2022/10/09 11:47:23;;;;;;;8.55;2.67;;;14.00;97.30;;;;;;5053987;28;20028;-81
2022/10/09 11:50:02;;;;;;;5.60;1.90;;;14.00;97.50;;;;;;5071636;28;20374;-81
2022/10/09 11:52:46;;;;;;;;;;;14.00;98.10;;;;;;5054527;28;20028;-81
2022/10/09 11:55:20;;;;;;;6.28;1.50;;;14.00;97.80;;;;;;5172667;22;19920;-71
2022/10/09 11:57:46;;;;;;;4.25;1.52;;;14.10;97.30;;;;;;5053779;28;20369;-70
2022/10/09 12:00:14;;;;;;;5.72;1.80;;;14.10;97.20;;;;;;5071785;28;20033;-70
2022/10/09 12:02:41;;;;;;;5.07;1.33;;;14.20;97.00;;;;;;5071721;28;20027;-70
2022/10/09 12:05:28;;;;;;;5.70;2.13;;;14.20;96.90;;;;;;5071793;28;20039;-71
2022/10/09 12:08:08;;;;;;;7.38;2.22;;;14.20;96.80;;;;;;5071467;28;20120;-70
2022/10/09 12:10:37;;;;;;;8.50;1.50;;;14.20;97.10;;;;;;5071645;28;20024;-71
2022/10/09 12:13:05;;;;;;;;;;;14.30;97.00;;;;;;5072097;28;20427;-71
2022/10/09 12:15:49;;;;;;;5.38;1.50;;;14.30;96.80;;;;;;5071807;28;19912;-70
2022/10/09 12:18:26;;;;;;;5.43;1.73;;;14.40;96.60;;;;;;5071630;28;20039;-70
2022/10/09 12:20:54;;;;;;;5.35;1.85;;;14.40;96.60;;;;;;5071549;28;20136;-70
2022/10/09 12:23:25;;;;;;;5.68;1.92;;;14.40;96.20;;;;;;5071379;28;20032;-70
2022/10/09 12:25:53;;;;;;;5.43;1.40;;;14.40;96.10;;;;;;5071420;28;20054;-71
2022/10/09 12:28:37;;;;;;;5.65;1.35;;;14.40;96.10;;;;;;5071347;28;20025;-70
2022/10/09 12:31:14;;;;;;;5.50;1.50;;;14.40;96.30;;;;;;5071737;28;20020;-70
2022/10/09 12:33:46;;;;;;;5.55;1.50;;;14.30;96.50;;;;;;5071339;28;20025;-71
2022/10/09 12:36:23;;;;;;;2.53;1.40;;;14.30;96.00;;;;;;5071340;28;20448;-71
2022/10/09 12:38:49;;;;;;;3.47;1.30;;;14.40;95.80;;;;;;5071166;28;20024;-70
2022/10/09 12:41:34;;;;;;;3.03;1.50;;;14.40;95.70;;;;;;5071174;28;20123;-70
2022/10/09 12:44:01;;;;;;;3.95;1.30;;;14.50;96.10;;;;;;5053327;28;20408;-70
2022/10/09 12:46:38;;;;;;;4.55;1.40;;;14.50;95.60;;;;;;5070980;28;20468;-70
2022/10/09 12:49:13;;;;;;;6.10;1.52;;;14.50;95.80;;;;;;5071211;28;20036;-70
2022/10/09 12:51:39;;;;;;;4.00;1.60;;;14.50;95.70;;;;;;5071111;28;20093;-70
2022/10/09 12:54:09;;;;;;;4.50;1.70;;;14.50;95.70;;;;;;5071168;28;20040;-70
2022/10/09 12:56:37;;;;;;;5.35;1.70;;;14.40;96.30;;;;;;5071179;28;20405;-70
2022/10/09 12:59:05;;;;;;;4.00;2.07;;;14.50;95.80;;;;;;5071134;28;20070;-71
2022/10/09 13:01:33;;;;;;;5.00;1.80;;;14.40;95.90;;;;;;5052993;28;20028;-71
2022/10/09 13:04:04;;;;;;;6.18;1.50;;;14.40;96.10;;;;;;5071126;28;20119;-71
2022/10/09 13:06:45;;;;;;;2.88;1.08;;;14.40;95.70;;;;;;5070977;28;20392;-69
2022/10/09 13:09:27;;;;;;;3.80;1.60;;;14.40;95.80;;;;;;5069961;28;20123;-70